Time;durP1;ratioP1;P1;durP2;ratioP2;P2;SDS_P1;SDS_P2;PMS_P1;PMS_P2;Temp;Humidity;BMP_temperature;BMP_pressure;BME280_temperature;BME280_humidity;BME280_pressure;Samples;Min_cycle;Max_cycle;Signal;HPM_P1;HPM_P2
2022/01/13 00:01:55;;;;;;;139.68;28.55;;;;;;;0.32;100.00;103963.78;4939423;29;20042;-89
2022/01/13 00:04:21;;;;;;;177.10;27.92;;;;;;;0.27;100.00;103956.94;4939197;29;20121;-89
2022/01/13 00:06:49;;;;;;;200.43;29.33;;;;;;;0.23;100.00;103952.66;4939160;29;20528;-89
2022/01/13 00:09:16;;;;;;;211.73;30.60;;;;;;;0.50;100.00;104001.25;4923067;29;20095;-89
2022/01/13 00:11:43;;;;;;;113.53;27.27;;;;;;;0.46;100.00;104002.34;4938454;29;20121;-89
2022/01/13 00:19:46;;;;;;;113.18;27.50;;;;;;;0.58;100.00;104041.84;4956469;29;20041;-89
2022/01/13 00:24:48;;;;;;;145.10;27.10;;;;;;;0.45;100.00;104016.66;4939953;29;20495;-90
2022/01/13 00:27:15;;;;;;;118.10;27.95;;;;;;;0.45;100.00;104016.66;4908278;29;20082;-90
2022/01/13 00:29:44;;;;;;;148.07;28.35;;;;;;;0.51;100.00;104025.22;4937891;29;20436;-90
2022/01/13 00:32:12;;;;;;;125.50;27.33;;;;;;;0.16;100.00;103974.31;4923164;29;20501;-90
2022/01/13 00:34:38;;;;;;;105.35;28.23;;;;;;;0.34;100.00;103993.97;4938329;29;20468;-90
2022/01/13 00:37:04;;;;;;;115.15;28.90;;;;;;;0.67;100.00;104052.13;4938698;29;20033;-89
2022/01/13 00:39:30;;;;;;;113.40;27.50;;;;;;;0.67;100.00;104049.44;4938316;29;20038;-89
2022/01/13 00:41:57;;;;;;;107.93;25.48;;;;;;;0.65;100.00;104054.00;4938403;29;20377;-90
2022/01/13 00:44:23;;;;;;;104.88;26.70;;;;;;;0.20;100.00;103975.03;4922247;29;20035;-90
2022/01/13 00:46:56;;;;;;;106.35;26.80;;;;;;;0.24;100.00;103979.31;4922255;29;20031;-90
2022/01/13 00:49:26;;;;;;;110.15;26.98;;;;;;;0.15;100.00;103958.38;4922971;29;20098;-90
2022/01/13 00:51:52;;;;;;;116.35;26.80;;;;;;;0.21;100.00;103960.75;4938380;29;20122;-89
2022/01/13 00:54:18;;;;;;;83.30;27.70;;;;;;;0.65;100.00;104031.72;4938554;29;20067;-89
2022/01/13 00:56:49;;;;;;;68.68;24.98;;;;;;;0.47;100.00;104009.41;4922406;29;20046;-89
2022/01/13 00:59:15;;;;;;;73.20;23.08;;;;;;;0.44;100.00;104007.75;4922656;29;20122;-90
2022/01/13 01:01:50;;;;;;;79.10;24.15;;;;;;;0.55;100.00;104025.97;4938065;29;20063;-90
2022/01/13 01:04:18;;;;;;;87.10;24.63;;;;;;;0.12;100.00;103948.69;4938456;29;20118;-90
2022/01/13 01:06:47;;;;;;;82.80;24.77;;;;;;;0.34;100.00;103990.44;4925787;29;20039;-90
2022/01/13 01:09:17;;;;;;;81.57;24.17;;;;;;;0.59;100.00;104018.66;4926713;29;20032;-89
2022/01/13 01:11:46;;;;;;;70.63;23.98;;;;;;;0.35;100.00;103984.13;4959641;28;20126;-89
2022/01/13 01:14:13;;;;;;;78.25;25.10;;;;;;;0.10;100.00;103949.69;4938576;29;20126;-89
2022/01/13 01:16:39;;;;;;;98.50;23.73;;;;;;;0.45;100.00;104013.97;4922962;29;20130;-89
2022/01/13 01:19:08;;;;;;;72.55;24.13;;;;;;;0.06;100.00;103951.63;4938450;29;20043;-90
2022/01/13 01:26:54;;;;;;;70.22;22.95;;;;;;;0.23;100.00;103988.25;4954840;29;20035;-89
2022/01/13 01:29:41;;;;;;;76.75;23.27;;;;;;;0.41;100.00;104033.75;4937678;29;20082;-89
2022/01/13 01:32:11;;;;;;;65.72;21.85;;;;;;;0.06;100.00;103988.13;4924569;29;20532;-89
2022/01/13 01:37:14;;;;;;;74.13;23.75;;;;;;;0.19;100.00;104008.00;4938183;29;20070;-90
2022/01/13 01:39:41;;;;;;;81.85;23.17;;;;;;;0.14;100.00;104010.88;4937315;29;20031;-89
2022/01/13 01:42:06;;;;;;;65.25;21.38;;;;;;;0.19;100.00;104021.34;4937507;29;20486;-89
2022/01/13 01:44:37;;;;;;;78.20;21.05;;;;;;;0.22;100.00;104028.38;4937368;29;20055;-89
2022/01/13 01:47:03;;;;;;;78.07;21.10;;;;;;;0.19;100.00;104026.69;4937271;29;20373;-89
2022/01/13 01:49:38;;;;;;;76.45;19.58;;;;;;;-0.02;100.00;103985.81;4921528;29;20057;-89
2022/01/13 01:52:05;;;;;;;92.95;21.55;;;;;;;-0.22;100.00;103950.22;4922549;29;20035;-89
2022/01/13 01:54:30;;;;;;;93.80;20.05;;;;;;;-0.23;100.00;103948.47;4937322;28;20035;-89
2022/01/13 01:57:00;;;;;;;81.90;20.30;;;;;;;-0.32;100.00;103932.00;4923320;29;20031;-89
2022/01/13 01:59:32;;;;;;;84.38;19.77;;;;;;;-0.24;100.00;103936.03;4925500;29;20061;-89
2022/01/13 02:01:58;;;;;;;118.72;21.13;;;;;;;0.10;100.00;103989.72;4926024;29;20046;-89
2022/01/13 02:04:26;;;;;;;61.15;19.52;;;;;;;-0.07;100.00;103963.81;4925527;29;20049;-89
2022/01/13 02:06:54;;;;;;;76.30;19.80;;;;;;;-0.25;100.00;103929.00;4940855;29;20086;-89
2022/01/13 02:09:21;;;;;;;96.45;19.40;;;;;;;-0.07;100.00;103963.81;4940824;29;20028;-89
2022/01/13 02:11:52;;;;;;;82.35;21.23;;;;;;;0.12;100.00;103987.88;4940993;29;20054;-89
2022/01/13 02:16:59;;;;;;;74.63;19.70;;;;;;;0.12;100.00;103988.75;4958136;29;20487;-88
2022/01/13 02:19:25;;;;;;;87.85;20.08;;;;;;;-0.01;100.00;103972.41;4941153;29;20035;-89
2022/01/13 02:21:52;;;;;;;68.65;20.15;;;;;;;-0.13;100.00;103943.59;4924878;29;20039;-89
2022/01/13 02:24:18;;;;;;;104.47;20.02;;;;;;;0.17;100.00;103993.88;4940765;29;20031;-90
2022/01/13 02:26:44;;;;;;;102.13;20.23;;;;;;;-0.12;100.00;103952.47;4940891;29;20145;-89
2022/01/13 02:29:10;;;;;;;109.22;19.65;;;;;;;0.14;100.00;104004.69;4925240;29;20043;-90
2022/01/13 02:31:35;;;;;;;118.40;20.27;;;;;;;-0.25;100.00;103953.00;4940517;29;20023;-89
2022/01/13 02:34:01;;;;;;;82.43;18.42;;;;;;;-0.20;100.00;103955.47;4940708;29;20129;-90
2022/01/13 02:36:30;;;;;;;83.82;20.05;;;;;;;-0.20;100.00;103956.34;4908725;29;20070;-89
2022/01/13 02:38:59;;;;;;;77.18;19.10;;;;;;;-0.03;100.00;103971.59;4940554;29;20118;-89
2022/01/13 02:41:27;;;;;;;88.40;20.65;;;;;;;-0.17;100.00;103941.13;4940379;29;20041;-90
2022/01/13 02:43:55;;;;;;;96.05;20.25;;;;;;;0.07;100.00;103977.38;4940238;29;20476;-89
2022/01/13 02:49:22;;;;;;;85.07;19.57;;;;;;;-0.19;100.00;103934.06;4957805;29;20132;-89
2022/01/13 02:51:51;;;;;;;91.75;21.52;;;;;;;0.31;100.00;104017.25;4940439;29;20118;-90
2022/01/13 02:54:17;;;;;;;73.97;20.05;;;;;;;0.30;100.00;104015.56;4940408;29;20034;-89
2022/01/13 02:56:44;;;;;;;76.05;20.17;;;;;;;0.34;100.00;104025.16;4939904;29;20412;-89
2022/01/13 02:59:10;;;;;;;109.32;20.27;;;;;;;0.22;100.00;104007.00;4939983;29;20094;-89
2022/01/13 03:01:36;;;;;;;82.70;20.17;;;;;;;0.06;100.00;103983.69;4957055;28;20079;-89
2022/01/13 03:04:06;;;;;;;94.82;20.75;;;;;;;0.19;100.00;104004.47;4923918;29;20432;-89
2022/01/13 03:06:36;;;;;;;88.75;20.35;;;;;;;0.26;100.00;104019.28;4939058;29;20054;-89
2022/01/13 03:09:11;;;;;;;109.32;21.20;;;;;;;0.22;100.00;104013.19;4924150;29;20039;-89
2022/01/13 03:11:37;;;;;;;98.85;22.25;;;;;;;0.27;100.00;104016.53;4939617;29;20082;-89
2022/01/13 03:14:05;;;;;;;75.97;21.17;;;;;;;-0.12;100.00;103947.13;4923872;29;20121;-89
2022/01/13 03:16:31;;;;;;;92.03;20.83;;;;;;;-0.15;100.00;103933.91;4939714;29;20031;-90
2022/01/13 03:18:57;;;;;;;72.05;21.40;;;;;;;0.31;100.00;104001.25;4939498;29;20395;-88
2022/01/13 03:21:23;;;;;;;89.00;23.00;;;;;;;-0.12;100.00;103921.28;4939680;29;20027;-89
2022/01/13 03:23:50;;;;;;;91.55;22.13;;;;;;;-0.09;100.00;103926.50;4939146;29;20559;-89
2022/01/13 03:26:15;;;;;;;118.75;23.10;;;;;;;-0.06;100.00;103926.38;4923897;29;20043;-89
2022/01/13 03:28:50;;;;;;;116.25;23.20;;;;;;;-0.13;100.00;103919.56;4923758;29;20031;-89
2022/01/13 03:31:26;;;;;;;109.75;23.02;;;;;;;-0.15;100.00;103921.41;4910680;29;20049;-89
2022/01/13 03:33:53;;;;;;;100.85;25.13;;;;;;;0.16;100.00;103970.75;4939448;29;20038;-89
2022/01/13 03:36:18;;;;;;;120.20;24.67;;;;;;;-0.11;100.00;103924.84;4939554;29;20043;-90
2022/01/13 03:38:45;;;;;;;90.07;25.05;;;;;;;-0.12;100.00;103931.09;4923387;29;20042;-89
2022/01/13 03:41:12;;;;;;;135.07;26.15;;;;;;;-0.09;100.00;103928.28;4939399;29;20078;-90
2022/01/13 03:43:38;;;;;;;138.50;24.75;;;;;;;-0.13;100.00;103921.34;4939611;29;20047;-90
2022/01/13 03:46:05;;;;;;;103.80;26.67;;;;;;;0.15;100.00;103964.56;4939257;29;20053;-89
2022/01/13 03:48:30;;;;;;;125.90;26.50;;;;;;;0.01;100.00;103945.63;4923556;29;20050;-88
2022/01/13 03:50:56;;;;;;;108.93;26.15;;;;;;;0.13;100.00;103961.09;4939160;29;20035;-89
2022/01/13 03:53:28;;;;;;;94.13;25.45;;;;;;;0.34;100.00;104001.13;4939878;29;20050;-89
2022/01/13 03:56:30;;;;;;;143.02;24.52;;;;;;;0.33;100.00;103996.72;4939938;29;20035;-89
2022/01/13 03:59:14;;;;;;;;;;;;;;;0.31;100.00;103986.09;4942027;29;20472;-90
2022/01/13 04:01:52;;;;;;;95.07;25.58;;;;;;;0.17;100.00;103972.50;4944259;29;19915;-89
2022/01/13 04:04:38;;;;;;;107.60;26.15;;;;;;;0.31;100.00;103991.44;4939861;29;20039;-89
2022/01/13 04:07:13;;;;;;;117.78;26.92;;;;;;;-0.01;100.00;103943.03;4939144;29;20041;-89
2022/01/13 04:09:42;;;;;;;105.45;27.00;;;;;;;0.32;100.00;103984.28;4939159;29;20542;-89
2022/01/13 04:12:11;;;;;;;110.07;27.98;;;;;;;-0.14;100.00;103909.81;4938768;29;20063;-88
2022/01/13 04:14:44;;;;;;;118.82;27.15;;;;;;;-0.12;100.00;103915.09;4955626;28;20031;-89
2022/01/13 04:17:18;;;;;;;104.22;27.02;;;;;;;0.28;100.00;103969.31;4938725;29;20039;-89
2022/01/13 04:19:45;;;;;;;96.90;27.75;;;;;;;-0.03;100.00;103926.22;4937692;29;20036;-88
2022/01/13 04:22:12;;;;;;;96.85;28.10;;;;;;;0.36;100.00;103988.56;4923180;29;20126;-89
2022/01/13 04:24:46;;;;;;;118.22;25.77;;;;;;;-0.21;100.00;103914.59;4907239;29;20035;-88
2022/01/13 04:27:21;;;;;;;99.45;27.48;;;;;;;-0.21;100.00;103916.38;4938659;29;20106;-89
2022/01/13 04:30:11;;;;;;;94.38;26.40;;;;;;;0.09;100.00;103958.63;4938474;29;20039;-90
2022/01/13 04:32:36;;;;;;;89.13;27.23;;;;;;;-0.01;100.00;103937.69;4941306;29;20043;-89
2022/01/13 04:35:02;;;;;;;103.85;27.25;;;;;;;0.33;100.00;103989.56;4906889;29;20039;-90
2022/01/13 04:37:27;;;;;;;109.63;27.25;;;;;;;0.30;100.00;103978.16;4937597;29;20043;-90
2022/01/13 04:39:53;;;;;;;117.90;27.63;;;;;;;0.13;100.00;103944.19;4922975;29;20061;-89
2022/01/13 04:42:18;;;;;;;152.10;26.88;;;;;;;0.17;100.00;103949.31;4906883;29;20087;-89
2022/01/13 04:44:46;;;;;;;135.77;27.95;;;;;;;0.32;100.00;103965.59;4922450;29;20039;-89
2022/01/13 04:47:11;;;;;;;127.82;26.50;;;;;;;-0.05;100.00;103909.38;4922415;29;20043;-89
2022/01/13 04:49:37;;;;;;;176.23;27.85;;;;;;;-0.02;100.00;103922.59;4937861;29;20039;-89
2022/01/13 04:52:03;;;;;;;141.65;29.42;;;;;;;0.18;100.00;103955.56;4922279;29;20039;-88
2022/01/13 04:54:28;;;;;;;104.72;30.00;;;;;;;-0.08;100.00;103898.84;4922052;29;20043;-89
2022/01/13 04:57:14;;;;;;;124.82;29.55;;;;;;;0.22;100.00;103949.09;4906408;29;20396;-89
2022/01/13 04:59:41;;;;;;;199.10;28.05;;;;;;;-0.09;100.00;103899.81;4938128;29;20027;-89
2022/01/13 05:02:14;;;;;;;179.15;28.70;;;;;;;-0.12;100.00;103889.25;4937837;29;20027;-89
2022/01/13 05:04:40;;;;;;;188.43;27.33;;;;;;;0.08;100.00;103939.06;4906936;29;20042;-89
2022/01/13 05:07:05;;;;;;;125.43;25.70;;;;;;;-0.05;100.00;103930.75;4937496;29;20043;-89
2022/01/13 05:09:31;;;;;;;153.00;27.42;;;;;;;-0.29;100.00;103892.69;4938117;29;20041;-89
2022/01/13 05:11:58;;;;;;;178.75;27.63;;;;;;;-0.29;100.00;103898.03;4937912;29;20058;-90
2022/01/13 05:14:25;;;;;;;140.85;28.58;;;;;;;0.19;100.00;103972.44;4938016;29;20043;-90
2022/01/13 05:19:22;;;;;;;161.85;28.88;;;;;;;-0.31;100.00;103897.25;4936935;29;20052;-89
2022/01/13 05:24:26;;;;;;;169.20;26.73;;;;;;;-0.02;100.00;103937.75;4954389;29;20031;-89
2022/01/13 05:26:52;;;;;;;149.27;26.85;;;;;;;0.23;100.00;103974.88;4937663;29;20090;-89
2022/01/13 05:29:21;;;;;;;172.50;25.95;;;;;;;0.19;100.00;103978.63;4906241;28;20469;-89
2022/01/13 05:31:59;;;;;;;140.80;28.08;;;;;;;0.06;100.00;103953.41;4921575;29;20492;-88
2022/01/13 05:34:24;;;;;;;177.30;29.08;;;;;;;0.01;100.00;103952.78;4937588;29;20031;-89
2022/01/13 05:36:50;;;;;;;145.20;28.55;;;;;;;0.02;100.00;103949.19;4937670;29;20027;-89
2022/01/13 05:39:15;;;;;;;197.63;28.83;;;;;;;0.02;100.00;103950.03;4937572;29;20086;-89
2022/01/13 05:41:50;;;;;;;183.90;27.52;;;;;;;0.08;100.00;103959.56;4921488;29;20090;-89
2022/01/13 05:44:16;;;;;;;154.10;27.92;;;;;;;-0.02;100.00;103946.63;4921904;29;20035;-89
2022/01/13 05:46:44;;;;;;;199.55;28.60;;;;;;;-0.29;100.00;103899.84;4937157;29;20078;-89
2022/01/13 05:49:10;;;;;;;218.80;30.77;;;;;;;0.16;100.00;103974.31;4937209;29;20039;-89
2022/01/13 05:51:39;;;;;;;189.00;29.70;;;;;;;0.16;100.00;103982.31;4906108;29;20412;-89
2022/01/13 05:54:04;;;;;;;205.35;31.60;;;;;;;0.11;100.00;103967.44;4937373;29;20039;-89
2022/01/13 05:56:30;;;;;;;148.07;30.05;;;;;;;0.20;100.00;103980.38;4921830;29;20435;-89
2022/01/13 05:58:56;;;;;;;194.85;30.77;;;;;;;0.22;100.00;103982.97;4921672;29;20058;-89
2022/01/13 06:01:26;;;;;;;205.85;31.63;;;;;;;-0.02;100.00;103951.97;4921519;29;20468;-88
2022/01/13 06:03:53;;;;;;;189.18;30.88;;;;;;;0.22;100.00;103985.63;4906086;29;20027;-89
2022/01/13 06:06:19;;;;;;;175.13;32.25;;;;;;;-0.06;100.00;103934.38;4921346;29;20038;-89
2022/01/13 06:08:49;;;;;;;194.93;32.70;;;;;;;0.25;100.00;103975.69;4921542;29;20399;-88
2022/01/13 06:11:23;;;;;;;206.95;32.42;;;;;;;-0.17;100.00;103896.63;4937046;29;20055;-89
2022/01/13 06:13:49;;;;;;;232.00;32.33;;;;;;;-0.08;100.00;103917.53;4922700;29;20404;-88
2022/01/13 06:16:15;;;;;;;210.57;31.33;;;;;;;0.26;100.00;103974.75;4921233;29;20043;-89
2022/01/13 06:18:41;;;;;;;204.63;32.33;;;;;;;-0.12;100.00;103909.75;4920955;29;20078;-89
2022/01/13 06:21:07;;;;;;;242.23;31.90;;;;;;;-0.16;100.00;103900.16;4937132;29;20515;-89
2022/01/13 06:23:33;;;;;;;195.95;30.38;;;;;;;0.04;100.00;103924.13;4905549;29;20043;-92
2022/01/13 06:26:02;;;;;;;184.75;31.23;;;;;;;0.31;100.00;103967.41;4937277;29;20032;-90
2022/01/13 06:28:28;;;;;;;170.10;29.05;;;;;;;0.26;100.00;103964.06;4921719;29;20031;-89
2022/01/13 06:30:57;;;;;;;256.38;30.85;;;;;;;-0.06;100.00;103910.34;4905840;29;20044;-88
2022/01/13 06:33:40;;;;;;;184.48;29.08;;;;;;;0.13;100.00;103942.41;4907626;29;20122;-94
2022/01/13 06:36:09;;;;;;;197.32;26.25;;;;;;;0.27;100.00;103962.28;4938294;29;20397;-91
2022/01/13 06:38:38;;;;;;;233.85;28.70;;;;;;;-0.24;100.00;103885.34;4922962;29;20032;-90
2022/01/13 06:41:10;;;;;;;279.63;29.35;;;;;;;-0.25;100.00;103880.06;4938869;28;20078;-92
2022/01/13 06:43:42;;;;;;;185.50;28.27;;;;;;;0.28;100.00;103961.31;4926013;29;20395;-92
2022/01/13 06:46:12;;;;;;;206.90;28.40;;;;;;;0.16;100.00;103950.28;4941899;29;20468;-92
2022/01/13 06:48:40;;;;;;;192.25;27.27;;;;;;;-0.01;100.00;103926.16;4941945;29;20031;-92
2022/01/13 06:51:11;;;;;;;195.80;27.42;;;;;;;0.26;100.00;103981.91;4926641;29;20041;-92
2022/01/13 06:53:50;;;;;;;214.63;27.20;;;;;;;-0.18;100.00;103897.53;4942293;29;20395;-92
2022/01/13 06:56:29;;;;;;;161.23;28.35;;;;;;;-0.16;100.00;103900.16;4947224;29;20046;-93
2022/01/13 06:59:05;;;;;;;241.05;29.42;;;;;;;-0.16;100.00;103892.13;4958538;29;20483;-90
2022/01/13 07:01:56;;;;;;;301.63;29.80;;;;;;;0.06;100.00;103927.59;4930667;29;20106;-92
2022/01/13 07:04:29;;;;;;;191.88;28.23;;;;;;;-0.13;100.00;103892.88;4942740;29;20388;-93
2022/01/13 07:07:19;;;;;;;;;;;;;;;;;;;;;
2022/01/13 07:09:49;;;;;;;218.48;28.40;;;;;;;-0.05;100.00;103898.72;4941489;29;20407;-91
2022/01/13 07:12:18;;;;;;;159.48;28.83;;;;;;;0.18;100.00;103934.19;4941186;29;20050;-91
2022/01/13 07:14:53;;;;;;;137.25;27.80;;;;;;;0.02;100.00;103895.78;4941299;29;20098;-91
2022/01/13 07:17:22;;;;;;;240.57;29.45;;;;;;;0.28;100.00;103930.16;4925483;29;20046;-91
2022/01/13 07:19:51;;;;;;;249.30;30.08;;;;;;;0.04;100.00;103899.25;4925237;29;20373;-91
2022/01/13 07:22:27;;;;;;;174.93;28.15;;;;;;;0.01;100.00;103896.72;4940890;29;20122;-92
2022/01/13 07:24:59;;;;;;;142.23;26.70;;;;;;;0.47;100.00;103972.91;4940238;29;20039;-92
2022/01/13 07:27:26;;;;;;;;;;;;;;;0.47;100.00;103970.22;4940689;29;20055;-90
2022/01/13 07:29:55;;;;;;;128.63;27.02;;;;;;;0.01;100.00;103891.38;4940091;29;19914;-91
2022/01/13 07:32:27;;;;;;;157.70;26.75;;;;;;;0.36;100.00;103951.16;4925088;29;20547;-91
2022/01/13 07:35:12;;;;;;;135.48;26.33;;;;;;;0.10;100.00;103905.16;4940701;29;20542;-93
2022/01/13 07:37:59;;;;;;;155.32;28.05;;;;;;;0.12;100.00;103894.41;4925966;29;20411;-92
2022/01/13 07:40:27;;;;;;;144.27;26.40;;;;;;;0.42;100.00;103950.00;4942360;29;20041;-91
2022/01/13 07:42:55;;;;;;;118.75;25.42;;;;;;;0.10;100.00;103890.94;4925261;29;20035;-91
2022/01/13 07:45:22;;;;;;;137.85;27.23;;;;;;;0.08;100.00;103887.50;4940772;29;20070;-91
2022/01/13 07:47:53;;;;;;;119.10;25.83;;;;;;;0.12;100.00;103897.09;4940355;29;20031;-91
2022/01/13 07:50:19;;;;;;;120.53;26.42;;;;;;;0.44;100.00;103948.97;4940298;29;20035;-88
2022/01/13 07:52:48;;;;;;;134.50;25.00;;;;;;;0.58;100.00;103985.75;4923929;28;20079;-90
2022/01/13 07:55:14;;;;;;;127.45;25.65;;;;;;;0.31;100.00;103931.78;4939400;29;20419;-90
2022/01/13 07:57:41;;;;;;;129.65;25.40;;;;;;;0.22;100.00;103918.88;4939217;29;20090;-90
2022/01/13 08:00:12;;;;;;;116.82;25.70;;;;;;;0.30;100.00;103930.94;4923198;29;20035;-89
2022/01/13 08:02:39;;;;;;;164.52;25.38;;;;;;;0.19;100.00;103919.88;4938988;29;20458;-89
2022/01/13 08:05:06;;;;;;;122.05;26.23;;;;;;;0.21;100.00;103923.34;4956348;28;20396;-89
2022/01/13 08:07:34;;;;;;;101.50;26.02;;;;;;;0.29;100.00;103931.84;4923297;29;20373;-89
2022/01/13 08:10:00;;;;;;;128.57;25.15;;;;;;;0.35;100.00;103938.72;4923649;29;20050;-90
2022/01/13 08:12:26;;;;;;;108.53;24.25;;;;;;;0.58;100.00;103980.41;4938561;29;20439;-90
2022/01/13 08:14:52;;;;;;;115.15;26.45;;;;;;;0.60;100.00;103988.34;4939275;29;20043;-90
2022/01/13 08:20:08;;;;;;;136.18;25.05;;;;;;;0.22;100.00;103919.72;4944913;28;20035;-90
2022/01/13 08:22:41;;;;;;;226.90;27.33;;;;;;;0.61;100.00;103988.25;4922734;29;20043;-89
2022/01/13 08:25:07;;;;;;;127.47;25.30;;;;;;;0.72;100.00;103994.91;4923152;29;20047;-90
2022/01/13 08:27:32;;;;;;;130.23;25.70;;;;;;;0.69;100.00;103987.91;4923396;29;20086;-89
2022/01/13 08:29:58;;;;;;;95.45;26.33;;;;;;;0.31;100.00;103926.44;4922735;29;20551;-90
2022/01/13 08:32:26;;;;;;;109.07;25.10;;;;;;;0.61;100.00;103972.22;4939167;29;20089;-89
2022/01/13 08:34:57;;;;;;;91.85;26.10;;;;;;;0.73;100.00;103994.84;4911021;29;20051;-90
2022/01/13 08:37:33;;;;;;;131.32;24.98;;;;;;;0.34;100.00;103931.69;4896583;29;20402;-90
2022/01/13 08:40:00;;;;;;;109.93;25.55;;;;;;;0.84;100.00;104016.59;4882737;29;20404;-90
2022/01/13 08:42:29;;;;;;;104.45;26.17;;;;;;;0.45;100.00;103942.69;4903886;29;20484;-90
2022/01/13 08:45:06;;;;;;;104.78;25.60;;;;;;;0.58;100.00;103955.50;4904704;29;20623;-91
2022/01/13 08:47:34;;;;;;;114.00;25.90;;;;;;;0.44;100.00;103943.63;4889054;29;20127;-90
2022/01/13 08:50:06;;;;;;;94.97;25.60;;;;;;;0.59;100.00;103955.41;4919274;29;20492;-90
2022/01/13 08:52:44;;;;;;;115.28;25.27;;;;;;;0.67;100.00;103963.91;4905525;29;20047;-91
2022/01/13 08:55:11;;;;;;;121.00;25.48;;;;;;;0.53;100.00;103947.66;4920279;29;20405;-91
2022/01/13 08:57:43;;;;;;;111.82;25.35;;;;;;;0.76;100.00;103969.78;4919922;29;20448;-91
2022/01/13 09:00:13;;;;;;;141.43;25.20;;;;;;;0.82;100.00;103986.38;4920621;29;20059;-90
2022/01/13 09:02:43;;;;;;;96.10;24.90;;;;;;;0.60;100.00;103945.59;4904226;29;20043;-89
2022/01/13 09:05:11;;;;;;;110.40;25.13;;;;;;;1.01;100.00;104022.91;4919552;29;20046;-90
2022/01/13 09:07:37;;;;;;;105.63;26.08;;;;;;;0.79;100.00;103991.00;4920063;29;20543;-90
2022/01/13 09:10:04;;;;;;;104.18;24.50;;;;;;;0.89;100.00;103997.66;4919340;29;20127;-90
2022/01/13 09:12:30;;;;;;;103.57;24.17;;;;;;;0.55;100.00;103939.56;4932060;29;20047;-90
2022/01/13 09:15:12;;;;;;;93.55;24.33;;;;;;;0.93;100.00;103998.34;4938543;29;20109;-90
2022/01/13 09:17:39;;;;;;;86.95;24.92;;;;;;;0.87;100.00;103992.38;4938363;29;20028;-91
2022/01/13 09:20:05;;;;;;;83.70;24.08;;;;;;;1.01;100.00;104007.72;4954296;29;20035;-91
2022/01/13 09:22:31;;;;;;;105.95;24.98;;;;;;;1.14;100.00;104036.56;4938372;29;20027;-91
2022/01/13 09:24:57;;;;;;;103.20;24.23;;;;;;;0.70;100.00;103962.91;4953522;28;20035;-91
2022/01/13 09:27:25;;;;;;;128.68;25.77;;;;;;;1.14;100.00;104031.22;4938488;29;20106;-91
2022/01/13 09:29:57;;;;;;;104.38;24.38;;;;;;;0.86;100.00;103968.38;4953947;28;20039;-91
2022/01/13 09:32:22;;;;;;;87.43;24.30;;;;;;;0.82;100.00;103966.78;4954076;29;20035;-91
2022/01/13 09:34:48;;;;;;;90.10;23.52;;;;;;;0.79;100.00;103972.28;4970636;28;20027;-91
2022/01/13 09:37:16;;;;;;;85.15;22.77;;;;;;;0.72;100.00;103958.34;4953771;28;20133;-91
2022/01/13 09:39:42;;;;;;;101.85;24.52;;;;;;;1.04;100.00;104014.75;4954042;28;20035;-90
2022/01/13 09:42:09;;;;;;;142.50;25.35;;;;;;;1.02;100.00;104024.66;4970144;28;20037;-91
2022/01/13 09:44:35;;;;;;;94.38;24.08;;;;;;;0.85;100.00;103963.97;4938329;29;20058;-91
2022/01/13 09:47:01;;;;;;;105.63;23.98;;;;;;;0.92;100.00;103981.44;4970589;28;20476;-91
2022/01/13 09:49:30;;;;;;;101.00;23.00;;;;;;;0.74;100.00;103956.47;4938069;29;20035;-91
2022/01/13 09:51:55;;;;;;;105.05;24.35;;;;;;;0.76;100.00;103970.63;4959116;28;20063;-90
2022/01/13 09:54:22;;;;;;;116.88;24.08;;;;;;;0.77;100.00;103956.34;4965001;29;20460;-90
2022/01/13 09:56:48;;;;;;;110.18;23.67;;;;;;;0.81;100.00;103968.63;4925387;29;20216;-90
2022/01/13 09:59:14;;;;;;;103.80;23.70;;;;;;;1.10;100.00;104003.75;4969768;28;20503;-91
2022/01/13 10:01:39;;;;;;;112.93;24.20;;;;;;;0.86;100.00;103968.38;4937032;29;20031;-90
2022/01/13 10:04:06;;;;;;;117.85;21.83;;;;;;;0.86;100.00;103963.91;4970137;28;20038;-91
2022/01/13 10:06:44;;;;;;;111.85;22.80;;;;;;;1.16;100.00;104015.94;4970338;28;20023;-91
2022/01/13 10:09:12;;;;;;;107.93;22.95;;;;;;;1.18;100.00;104006.03;4937860;29;20027;-91
2022/01/13 10:11:41;;;;;;;104.25;23.95;;;;;;;1.20;100.00;104015.72;4935662;29;20082;-90
2022/01/13 10:17:07;;;;;;;95.68;22.45;;;;;;;1.22;100.00;104015.66;4936536;29;20040;-90
2022/01/13 10:19:34;;;;;;;87.45;23.42;;;;;;;1.27;100.00;104002.91;4922663;29;20135;-91
2022/01/13 10:22:12;;;;;;;117.70;23.95;;;;;;;1.11;100.00;103968.03;4922671;29;20035;-90
2022/01/13 10:24:40;;;;;;;103.75;22.58;;;;;;;1.09;100.00;103966.38;4938339;29;20055;-90
2022/01/13 10:27:28;;;;;;;97.95;22.48;;;;;;;1.28;100.00;104006.44;4922369;29;20043;-90
2022/01/13 10:29:56;;;;;;;100.28;21.52;;;;;;;1.21;100.00;103987.16;4922555;29;20034;-91
2022/01/13 10:32:40;;;;;;;86.13;22.85;;;;;;;1.48;100.00;104032.22;4924437;29;20472;-90
2022/01/13 10:35:24;;;;;;;113.25;22.20;;;;;;;1.36;100.00;104005.13;4922237;29;20437;-90
2022/01/13 10:37:57;;;;;;;92.45;21.23;;;;;;;1.51;100.00;104040.09;4907036;29;20396;-90
2022/01/13 10:40:31;;;;;;;86.10;21.02;;;;;;;1.48;100.00;104032.22;4922481;29;20482;-89
2022/01/13 10:45:52;;;;;;;105.18;21.98;;;;;;;1.40;100.00;104011.19;4939269;29;20401;-90
2022/01/13 10:48:28;;;;;;;98.40;22.25;;;;;;;1.44;100.00;104011.91;4922754;29;20064;-90
2022/01/13 10:51:05;;;;;;;84.65;21.52;;;;;;;1.11;100.00;103960.03;4922481;29;20032;-91
2022/01/13 10:53:41;;;;;;;72.68;21.05;;;;;;;1.24;100.00;103984.34;4922225;29;20437;-90
2022/01/13 10:56:24;;;;;;;;;;;;;;;;;;;;;
2022/01/13 10:58:57;;;;;;;90.13;20.63;;;;;;;1.37;100.00;104003.31;4939348;29;20058;-90
2022/01/13 11:01:38;;;;;;;77.43;21.27;;;;;;;1.13;100.00;103946.56;4921686;29;20122;-91
2022/01/13 11:04:51;;;;;;;82.25;21.33;;;;;;;1.17;100.00;103946.34;4921567;29;20067;-91
2022/01/13 11:07:26;;;;;;;68.60;20.77;;;;;;;1.34;100.00;103974.88;4922361;29;20078;-91
2022/01/13 11:09:58;;;;;;;67.43;21.75;;;;;;;1.70;100.00;104010.59;4928191;29;20471;-91
2022/01/13 11:12:38;;;;;;;68.40;20.00;;;;;;;1.31;100.00;103937.59;4933331;29;20059;-90
2022/01/13 11:15:07;;;;;;;78.68;22.23;;;;;;;1.33;100.00;103937.50;4940673;29;20481;-91
2022/01/13 11:17:40;;;;;;;78.47;20.92;;;;;;;1.32;100.00;103939.34;4940959;29;20035;-90
2022/01/13 11:20:19;;;;;;;87.35;21.70;;;;;;;1.27;100.00;103921.78;4940598;29;20039;-91
2022/01/13 11:22:48;;;;;;;90.63;19.17;;;;;;;1.49;100.00;103973.28;4940575;29;20485;-91
2022/01/13 11:25:23;;;;;;;69.53;20.83;;;;;;;1.17;100.00;103929.44;4940643;29;20043;-91
2022/01/13 11:27:50;;;;;;;77.50;21.67;;;;;;;1.48;100.00;103958.16;4940405;29;20463;-90
2022/01/13 11:30:20;;;;;;;101.13;22.48;;;;;;;1.21;100.00;103917.59;4940255;29;20122;-90
2022/01/13 11:32:51;;;;;;;89.65;20.55;;;;;;;1.54;100.00;103965.84;4940208;29;20031;-90
2022/01/13 11:35:28;;;;;;;76.97;20.23;;;;;;;1.23;100.00;103913.06;4940180;29;20035;-90
2022/01/13 11:37:56;;;;;;;73.22;19.75;;;;;;;1.22;100.00;103905.97;4940195;29;20039;-90
2022/01/13 11:40:26;;;;;;;80.05;21.27;;;;;;;1.61;100.00;103963.75;4940232;29;20105;-91
2022/01/13 11:42:52;;;;;;;80.13;20.58;;;;;;;1.72;100.00;103980.09;4936822;29;20094;-90
2022/01/13 11:45:20;;;;;;;84.18;20.98;;;;;;;1.73;100.00;103986.31;4936619;29;20042;-90
2022/01/13 11:48:13;;;;;;;75.55;21.45;;;;;;;1.35;100.00;103915.09;4939677;29;20110;-91
2022/01/13 11:50:47;;;;;;;82.25;20.65;;;;;;;1.38;100.00;103922.97;4939115;29;20059;-91
2022/01/13 11:53:25;;;;;;;97.05;20.88;;;;;;;1.79;100.00;103991.34;4939809;29;20518;-91
2022/01/13 11:55:54;;;;;;;65.00;20.63;;;;;;;1.27;100.00;103913.75;4972594;28;20076;-91